Portada
METAR-TAF:

METAR-TAF

Aeroports :

Algesires, Espanya

latitud: 36-07-44N, longitud: 05-26-28W, altitud: 30 m

Observació

L'informe es va fer fa 24 minuts, a les 05:30 UTC
Vent 13 kt del Nord-Oest, variant entre Oest i Nord
Temperatura 11°C
Humitat 71%
Pressió 1023 hPa
Visibilitat 10 km o més
sense núvols per sota de 1500 mi sense presència de cumulonimbus.

METAR: LEAG 140530Z AUTO 31013KT 270V350 CAVOK 11/06 Q1023

Hora: 06:54 (05:54 UTC)


TAF: manca

Observacions i pronòstics meteorològics de més de 4000 aeroports (METAR i TAF).

Les estacions disponibles són els punts grocs i vermells al mapa.

Posi el ratolí al punt desitjat per veure el nom de l'estació.

Feu clic per veure les observacions i els pronòstics meteorològics.

Per canviar el mapa: feu clic els botons verds amb una creu de color negre per apropar; al botó verd amb un guió per allunyar la imatge; o en les fletxes verdes per a mapes adjacents.


METAR-TAF: